Time;durP1;ratioP1;P1;durP2;ratioP2;P2;SDS_P1;SDS_P2;PMS_P1;PMS_P2;Temp;Humidity;BMP_temperature;BMP_pressure;BME280_temperature;BME280_humidity;BME280_pressure;Samples;Min_cycle;Max_cycle;Signal;HPM_P1;HPM_P2
2023/03/22 00:00:48;;;;;;;22.92;10.65;;;;;;;9.67;61.02;100075.28;5039438;28;20075;-65
2023/03/22 00:03:14;;;;;;;28.90;13.65;;;;;;;9.64;61.11;100064.78;5027439;28;20368;-65
2023/03/22 00:05:40;;;;;;;18.88;8.80;;;;;;;9.59;61.04;100071.81;5038975;28;20155;-65
2023/03/22 00:08:07;;;;;;;16.40;8.30;;;;;;;9.52;61.35;100063.06;5039259;28;20057;-66
2023/03/22 00:10:33;;;;;;;17.25;8.05;;;;;;;9.49;61.18;100055.19;5046681;28;20052;-65
2023/03/22 00:12:59;;;;;;;20.00;9.40;;;;;;;9.46;61.24;100053.44;5038941;28;20130;-66
2023/03/22 00:15:28;;;;;;;21.48;9.10;;;;;;;9.43;61.10;100056.09;5038728;28;20076;-66
2023/03/22 00:17:54;;;;;;;16.93;8.07;;;;;;;9.43;61.18;100049.97;5039221;28;20034;-65
2023/03/22 00:20:22;;;;;;;13.65;6.90;;;;;;;9.41;61.02;100056.97;5040310;28;20029;-65
2023/03/22 00:22:48;;;;;;;13.82;6.20;;;;;;;9.36;61.31;100059.63;5037492;28;20053;-65
2023/03/22 00:25:14;;;;;;;12.65;6.40;;;;;;;9.32;61.15;100061.38;5038986;28;20036;-66
2023/03/22 00:27:40;;;;;;;14.63;5.90;;;;;;;9.27;61.17;100062.25;5040042;28;20580;-65
2023/03/22 00:30:06;;;;;;;11.90;6.60;;;;;;;9.23;61.10;100068.38;5037399;28;20113;-65
2023/03/22 00:32:34;;;;;;;15.27;7.55;;;;;;;9.21;61.32;100062.25;5038737;28;20033;-66
2023/03/22 00:35:00;;;;;;;15.80;6.87;;;;;;;9.16;61.46;100057.91;5038925;28;20040;-65
2023/03/22 00:37:27;;;;;;;13.50;7.20;;;;;;;9.16;61.59;100057.91;5049247;28;20033;-67
2023/03/22 00:39:53;;;;;;;13.95;7.30;;;;;;;9.14;61.51;100058.75;5046827;28;20033;-65
2023/03/22 00:42:18;;;;;;;12.93;6.27;;;;;;;9.12;61.88;100060.53;5047946;28;20025;-65
2023/03/22 00:44:44;;;;;;;10.63;5.93;;;;;;;9.09;61.74;100045.66;5047073;28;20120;-65
2023/03/22 00:47:09;;;;;;;12.20;5.67;;;;;;;9.08;61.94;100048.28;5058620;28;20033;-67
2023/03/22 00:49:36;;;;;;;13.32;6.20;;;;;;;9.05;61.99;100038.66;5046597;28;20021;-67
2023/03/22 00:52:02;;;;;;;13.97;6.27;;;;;;;9.02;62.08;100022.88;5038636;28;20482;-66
2023/03/22 00:54:27;;;;;;;16.55;6.70;;;;;;;9.01;61.91;100026.38;5038215;28;20476;-66
2023/03/22 00:56:52;;;;;;;15.53;7.67;;;;;;;8.98;61.89;100021.13;5038427;28;20497;-67
2023/03/22 00:59:18;;;;;;;14.10;7.10;;;;;;;8.94;61.86;100019.41;5037939;28;20021;-67
2023/03/22 01:01:43;;;;;;;16.00;6.90;;;;;;;8.91;62.00;100009.75;5049020;28;20064;-66
2023/03/22 01:04:14;;;;;;;11.33;5.60;;;;;;;8.88;62.04;100005.41;5052086;28;20025;-65
2023/03/22 01:06:39;;;;;;;12.30;5.30;;;;;;;8.86;62.78;100011.53;5036816;28;20029;-65
2023/03/22 01:09:04;;;;;;;10.73;5.30;;;;;;;8.84;62.74;100003.66;5037932;28;20033;-66
2023/03/22 01:11:30;;;;;;;10.87;5.17;;;;;;;8.80;63.15;99999.31;5036565;28;20170;-65
2023/03/22 01:13:56;;;;;;;11.17;5.07;;;;;;;8.72;63.14;100009.81;5037962;28;20033;-64
2023/03/22 01:16:21;;;;;;;11.63;5.18;;;;;;;8.66;63.44;100009.78;5037637;28;20029;-67
2023/03/22 01:18:46;;;;;;;13.23;5.83;;;;;;;8.59;63.52;99994.94;5054792;28;20017;-65
2023/03/22 01:21:12;;;;;;;12.53;4.53;;;;;;;8.51;64.08;99994.06;5056671;28;20074;-67
2023/03/22 01:23:37;;;;;;;10.43;5.28;;;;;;;8.42;64.84;99984.41;5037647;28;20021;-65
2023/03/22 01:26:04;;;;;;;12.80;5.70;;;;;;;8.31;65.46;99985.25;5036383;28;20055;-67
2023/03/22 01:28:29;;;;;;;12.85;5.03;;;;;;;8.28;64.73;99982.63;5037467;28;20052;-65
2023/03/22 01:30:55;;;;;;;10.43;4.80;;;;;;;8.25;64.90;99982.63;5037062;28;20033;-67
2023/03/22 01:33:20;;;;;;;11.03;5.00;;;;;;;8.22;65.14;99977.38;5037417;28;20056;-66
2023/03/22 01:35:46;;;;;;;12.68;5.13;;;;;;;8.16;65.25;99972.16;5037403;28;20051;-65
2023/03/22 01:38:11;;;;;;;10.77;5.13;;;;;;;8.12;65.34;99966.00;5037194;28;20037;-65
2023/03/22 01:40:37;;;;;;;9.60;4.60;;;;;;;8.12;65.36;99966.00;5036816;28;20087;-65
2023/03/22 01:43:02;;;;;;;11.52;5.30;;;;;;;8.13;65.15;99967.75;5037417;28;20124;-65
2023/03/22 01:45:31;;;;;;;10.67;5.00;;;;;;;8.16;64.94;99953.78;5037186;28;20397;-65
2023/03/22 01:48:01;;;;;;;10.95;4.68;;;;;;;8.21;65.07;99949.41;5037202;28;20026;-65
2023/03/22 01:50:27;;;;;;;10.73;4.50;;;;;;;8.26;65.04;99946.81;5036922;28;20036;-65
2023/03/22 01:52:55;;;;;;;11.68;4.30;;;;;;;8.30;64.54;99935.44;5035710;28;20061;-65
2023/03/22 01:55:22;;;;;;;13.07;4.60;;;;;;;8.31;64.43;99945.91;5037168;28;20033;-65
2023/03/22 01:57:48;;;;;;;9.73;4.43;;;;;;;8.32;64.52;99952.03;5037179;28;20108;-65
2023/03/22 02:00:15;;;;;;;8.43;3.78;;;;;;;8.33;64.13;99936.31;5042289;28;20028;-65
2023/03/22 02:02:47;;;;;;;9.32;4.53;;;;;;;8.31;64.62;99935.41;5056800;28;20033;-65
2023/03/22 02:05:13;;;;;;;9.77;4.38;;;;;;;8.31;63.99;99932.78;5042094;28;20039;-65
2023/03/22 02:07:40;;;;;;;10.27;4.70;;;;;;;8.29;64.71;99931.06;5036944;28;20085;-65
2023/03/22 02:10:18;;;;;;;12.25;4.90;;;;;;;8.25;64.77;99931.94;5036496;28;20049;-65
2023/03/22 02:13:15;;;;;;;8.80;4.25;;;;;;;8.21;64.56;99933.66;5037873;28;20097;-65
2023/03/22 02:16:02;;;;;;;11.02;4.53;;;;;;;8.15;64.60;99934.53;5049263;28;20029;-65
2023/03/22 02:18:30;;;;;;;9.10;4.20;;;;;;;8.13;64.62;99932.81;5056631;28;20036;-65
2023/03/22 02:21:26;;;;;;;10.17;4.57;;;;;;;8.14;64.51;99924.06;5056846;28;20053;-65
2023/03/22 02:23:54;;;;;;;10.38;4.70;;;;;;;8.14;63.93;99926.69;5029852;28;20037;-65
2023/03/22 02:26:48;;;;;;;9.70;4.72;;;;;;;8.13;64.51;99922.31;5036680;28;20037;-67
2023/03/22 02:29:43;;;;;;;12.73;4.60;;;;;;;8.09;64.82;99920.56;5036508;28;20021;-67
2023/03/22 02:32:39;;;;;;;9.40;4.50;;;;;;;8.03;64.89;99919.66;5036731;28;20034;-66
2023/03/22 02:35:32;;;;;;;10.87;4.47;;;;;;;8.02;64.52;99917.91;5036816;28;20029;-67
2023/03/22 02:38:19;;;;;;;9.20;4.50;;;;;;;7.99;64.81;99917.91;5026520;28;20053;-67
2023/03/22 02:41:12;;;;;;;8.85;4.13;;;;;;;7.96;65.16;99914.44;5036432;28;20389;-67
2023/03/22 02:43:46;;;;;;;10.68;4.65;;;;;;;7.94;64.73;99918.78;5036544;28;20032;-67
2023/03/22 02:46:12;;;;;;;14.85;4.90;;;;;;;7.94;64.43;99922.28;5036415;28;20029;-67
2023/03/22 02:48:55;;;;;;;11.13;4.43;;;;;;;7.89;64.60;99916.19;5036532;28;20033;-66
2023/03/22 02:51:28;;;;;;;11.03;4.13;;;;;;;7.85;64.77;99914.44;5036764;28;20025;-67
2023/03/22 02:54:00;;;;;;;11.85;4.57;;;;;;;7.82;64.89;99906.53;5039552;28;20021;-67
2023/03/22 02:58:58;;;;;;;11.73;4.88;;;;;;;7.63;66.77;99906.53;5055933;28;20484;-67
2023/03/22 03:01:57;;;;;;;11.17;4.70;;;;;;;7.55;66.52;99911.75;5028732;28;20030;-66
2023/03/22 03:04:36;;;;;;;11.52;4.70;;;;;;;7.54;66.26;99911.72;5036155;28;20557;-66
2023/03/22 03:07:08;;;;;;;8.85;4.50;;;;;;;7.55;66.49;99921.34;5040296;28;20515;-67
2023/03/22 03:09:35;;;;;;;11.20;4.80;;;;;;;7.50;65.98;99907.34;5041398;28;20099;-66
2023/03/22 03:12:00;;;;;;;8.75;4.32;;;;;;;7.45;65.90;99904.72;5055393;28;20432;-66
2023/03/22 03:14:31;;;;;;;12.03;4.60;;;;;;;7.46;65.91;99909.06;5060006;28;20025;-67
2023/03/22 03:17:02;;;;;;;8.27;4.13;;;;;;;7.47;65.90;99902.97;5060276;28;20025;-67
2023/03/22 03:19:39;;;;;;;12.13;4.43;;;;;;;7.49;66.23;99901.25;5060178;28;20032;-67
2023/03/22 03:22:32;;;;;;;8.98;4.32;;;;;;;7.49;65.84;99910.84;5051673;28;20013;-66
2023/03/22 03:25:05;;;;;;;8.63;3.88;;;;;;;7.46;65.36;99902.09;5040024;28;20104;-67
2023/03/22 03:27:37;;;;;;;9.10;4.25;;;;;;;7.44;66.00;99901.22;5040188;28;20049;-66
2023/03/22 03:30:13;;;;;;;8.48;4.13;;;;;;;7.45;66.18;99896.84;5039667;28;20021;-67
2023/03/22 03:32:45;;;;;;;9.43;4.27;;;;;;;7.45;65.15;99897.75;5039984;28;20037;-66
2023/03/22 03:35:22;;;;;;;8.32;4.45;;;;;;;7.41;65.92;99898.59;5039768;28;20025;-67
2023/03/22 03:38:17;;;;;;;10.95;4.38;;;;;;;7.36;67.03;99895.09;5039717;28;20091;-66
2023/03/22 03:41:01;;;;;;;10.73;3.83;;;;;;;7.33;67.01;99888.09;5038803;28;20037;-67
2023/03/22 03:43:26;;;;;;;10.82;4.40;;;;;;;7.32;65.93;99878.50;5038396;28;20436;-67
2023/03/22 03:45:53;;;;;;;10.67;4.30;;;;;;;7.32;65.98;99883.72;5039650;28;20086;-67
2023/03/22 03:48:23;;;;;;;8.93;4.13;;;;;;;7.30;66.15;99875.00;5039657;28;20029;-67
2023/03/22 03:50:51;;;;;;;9.10;4.10;;;;;;;7.27;66.34;99876.72;5039592;28;20060;-67
2023/03/22 03:53:17;;;;;;;9.17;3.90;;;;;;;7.27;65.66;99879.34;5039393;28;20032;-67
2023/03/22 03:55:42;;;;;;;11.80;4.75;;;;;;;7.27;65.61;99879.34;5039757;28;20025;-67
2023/03/22 03:58:08;;;;;;;11.10;4.23;;;;;;;7.26;65.45;99886.34;5039283;28;20052;-67
2023/03/22 04:00:35;;;;;;;12.43;4.43;;;;;;;7.20;65.68;99890.69;5048953;28;20398;-66
2023/03/22 04:03:00;;;;;;;10.13;4.30;;;;;;;7.11;66.31;99883.66;5059243;28;20271;-67
2023/03/22 04:05:26;;;;;;;11.27;4.55;;;;;;;7.08;65.99;99884.50;5043944;28;20032;-67
2023/03/22 04:07:51;;;;;;;11.40;4.00;;;;;;;7.08;66.41;99889.75;5054513;28;20052;-66
2023/03/22 04:10:17;;;;;;;10.23;4.90;;;;;;;7.09;66.29;99891.50;5059257;28;20064;-67
2023/03/22 04:12:42;;;;;;;8.80;4.00;;;;;;;7.09;66.36;99894.09;5059091;28;20422;-67
2023/03/22 04:15:08;;;;;;;11.53;4.50;;;;;;;7.08;66.12;99897.59;5058972;28;20029;-66
2023/03/22 04:17:33;;;;;;;11.10;4.53;;;;;;;7.08;66.07;99894.13;5059024;28;20028;-67
2023/03/22 04:20:01;;;;;;;9.50;4.20;;;;;;;7.03;66.87;99894.09;5059298;28;20477;-67
2023/03/22 04:22:27;;;;;;;9.30;4.57;;;;;;;6.99;66.61;99897.56;5047318;28;20053;-67
2023/03/22 04:24:52;;;;;;;11.57;4.77;;;;;;;6.97;66.28;99904.53;5039062;28;20037;-66
2023/03/22 04:27:19;;;;;;;11.73;4.10;;;;;;;6.97;66.17;99907.16;5038964;28;20040;-66
2023/03/22 04:29:49;;;;;;;9.30;3.97;;;;;;;6.95;66.09;99890.56;5038558;28;20131;-66
2023/03/22 04:32:17;;;;;;;9.27;4.40;;;;;;;6.94;66.12;99894.06;5039051;28;20102;-66
2023/03/22 04:34:44;;;;;;;8.97;4.20;;;;;;;6.92;66.14;99894.03;5037536;28;20848;-67
2023/03/22 04:37:09;;;;;;;9.20;4.15;;;;;;;6.88;65.64;99898.41;5038624;28;20045;-66
2023/03/22 04:39:35;;;;;;;9.63;3.88;;;;;;;6.87;65.74;99901.88;5038530;28;20108;-67
2023/03/22 04:42:00;;;;;;;9.57;4.13;;;;;;;6.85;66.17;99902.72;5038595;28;20052;-66
2023/03/22 04:44:26;;;;;;;9.13;3.90;;;;;;;6.82;65.98;99906.19;5038674;28;20025;-67
2023/03/22 04:46:51;;;;;;;9.67;4.10;;;;;;;6.78;65.95;99896.59;5038552;28;20112;-66
2023/03/22 04:49:17;;;;;;;11.50;4.30;;;;;;;6.76;65.69;99898.31;5038636;28;20033;-66
2023/03/22 04:51:42;;;;;;;9.20;4.03;;;;;;;6.73;65.88;99903.53;5038541;28;20151;-66
2023/03/22 04:54:08;;;;;;;8.88;3.90;;;;;;;6.71;66.08;99906.13;5038265;28;20080;-66
2023/03/22 04:56:33;;;;;;;8.30;4.03;;;;;;;6.70;66.20;99908.75;5038281;28;20061;-66
2023/03/22 04:58:58;;;;;;;9.90;4.10;;;;;;;6.67;65.47;99903.50;5036880;28;20029;-66
2023/03/22 05:01:24;;;;;;;9.30;4.20;;;;;;;6.66;65.39;99913.09;5053425;28;20029;-66
2023/03/22 05:03:49;;;;;;;12.90;4.60;;;;;;;6.64;65.51;99903.50;5031858;28;20017;-66
2023/03/22 05:06:15;;;;;;;14.52;5.72;;;;;;;6.60;66.10;99897.38;5038414;28;20029;-66
2023/03/22 05:08:40;;;;;;;14.40;5.40;;;;;;;6.55;66.36;99899.94;5038216;28;20068;-67
2023/03/22 05:11:12;;;;;;;11.27;4.83;;;;;;;6.47;66.60;99899.03;5038125;28;20057;-67
2023/03/22 05:13:38;;;;;;;10.20;4.80;;;;;;;6.40;66.86;99889.41;5038334;28;20478;-66
2023/03/22 05:16:04;;;;;;;8.10;4.10;;;;;;;6.38;67.04;99893.72;5037368;28;20033;-67
2023/03/22 05:18:31;;;;;;;11.57;4.40;;;;;;;6.39;66.78;99896.34;5038170;28;20033;-66
2023/03/22 05:20:58;;;;;;;10.02;4.28;;;;;;;6.39;67.26;99888.50;5038321;28;20029;-66
2023/03/22 05:23:23;;;;;;;11.57;4.28;;;;;;;6.39;66.12;99887.63;5037859;28;20052;-67
2023/03/22 05:25:51;;;;;;;10.40;4.03;;;;;;;6.40;66.12;99878.94;5038020;28;20030;-66
2023/03/22 05:28:21;;;;;;;10.38;4.72;;;;;;;6.39;66.77;99879.75;5037982;28;20033;-66
2023/03/22 05:30:47;;;;;;;10.30;4.30;;;;;;;6.39;66.16;99877.16;5037611;28;20033;-66
2023/03/22 05:33:15;;;;;;;10.43;4.30;;;;;;;6.36;66.20;99862.34;5037878;28;20032;-66
2023/03/22 05:35:41;;;;;;;11.63;4.30;;;;;;;6.30;66.86;99857.94;5037747;28;20034;-67
2023/03/22 05:38:07;;;;;;;13.23;4.40;;;;;;;6.27;66.71;99851.78;5036248;28;20029;-66
2023/03/22 05:40:33;;;;;;;12.43;4.75;;;;;;;6.29;66.74;99850.94;5037447;28;20057;-66
2023/03/22 05:42:59;;;;;;;10.53;4.50;;;;;;;6.30;66.75;99855.31;5037833;28;20022;-66
2023/03/22 05:45:24;;;;;;;11.63;4.00;;;;;;;6.34;67.05;99855.34;5037427;28;20033;-66
2023/03/22 05:47:50;;;;;;;10.90;4.30;;;;;;;6.36;66.18;99866.66;5037592;28;20033;-66
2023/03/22 05:50:17;;;;;;;12.77;4.33;;;;;;;6.37;66.22;99874.53;5037705;28;20033;-66
2023/03/22 05:52:44;;;;;;;10.13;4.43;;;;;;;6.36;66.56;99866.66;5037247;28;20090;-67
2023/03/22 05:55:12;;;;;;;12.00;4.75;;;;;;;6.35;67.04;99868.44;5037329;28;20063;-67
2023/03/22 05:57:38;;;;;;;10.57;4.67;;;;;;;6.36;66.82;99869.28;5038618;28;20032;-66
2023/03/22 06:00:09;;;;;;;11.50;4.00;;;;;;;6.37;66.87;99873.66;5046235;28;20032;-66
2023/03/22 06:02:34;;;;;;;9.85;4.35;;;;;;;6.38;66.94;99876.28;5035900;28;20567;-66
2023/03/22 06:05:00;;;;;;;11.90;5.77;;;;;;;6.33;67.02;99878.00;5037300;28;20029;-66
2023/03/22 06:07:25;;;;;;;12.23;5.70;;;;;;;6.24;67.60;99873.59;5037560;28;20382;-66
2023/03/22 06:09:51;;;;;;;13.23;5.45;;;;;;;6.16;68.09;99870.91;5036987;28;20144;-65
2023/03/22 06:12:17;;;;;;;12.63;5.50;;;;;;;6.13;68.17;99883.06;5037428;28;20168;-66
2023/03/22 06:14:42;;;;;;;13.40;5.20;;;;;;;6.23;68.21;99887.53;5036793;28;20401;-66
2023/03/22 06:17:08;;;;;;;11.93;5.50;;;;;;;6.47;67.16;99896.41;5037080;28;20037;-65
2023/03/22 06:19:34;;;;;;;13.23;5.53;;;;;;;6.68;66.78;99890.41;5037067;28;20029;-65
2023/03/22 06:21:59;;;;;;;9.77;4.67;;;;;;;6.73;67.06;99893.06;5037077;28;20302;-65
2023/03/22 06:24:24;;;;;;;13.57;4.83;;;;;;;6.83;66.44;99894.84;5036760;28;20069;-66
2023/03/22 06:26:50;;;;;;;9.50;4.50;;;;;;;6.85;66.49;99897.50;5036361;28;20041;-65
2023/03/22 06:29:15;;;;;;;10.50;5.03;;;;;;;6.86;67.46;99894.88;5036712;28;20021;-66
2023/03/22 06:31:41;;;;;;;9.47;4.77;;;;;;;6.95;66.44;99893.19;5037035;28;20268;-66
2023/03/22 06:34:06;;;;;;;10.23;5.00;;;;;;;7.11;66.61;99889.75;5036616;28;20029;-66
2023/03/22 06:36:31;;;;;;;10.67;4.53;;;;;;;7.33;65.79;99890.72;5036852;28;20094;-65
2023/03/22 06:39:01;;;;;;;10.53;3.97;;;;;;;7.63;65.25;99897.78;5036495;28;20028;-65
2023/03/22 06:41:27;;;;;;;11.88;4.80;;;;;;;7.55;65.07;99895.13;5036805;28;20044;-66
2023/03/22 06:43:52;;;;;;;12.07;4.80;;;;;;;7.43;65.99;99902.09;5036736;28;20402;-65
2023/03/22 06:46:17;;;;;;;12.07;5.10;;;;;;;7.29;65.78;99901.16;5036915;28;20397;-66
2023/03/22 06:48:43;;;;;;;11.63;4.83;;;;;;;7.20;66.76;99898.53;5036520;28;20378;-65
2023/03/22 06:51:08;;;;;;;15.80;4.70;;;;;;;7.22;66.87;99904.66;5036453;28;20085;-66
2023/03/22 06:53:34;;;;;;;14.27;4.73;;;;;;;7.21;67.50;99902.91;5036181;28;20038;-66
2023/03/22 06:56:02;;;;;;;12.70;4.70;;;;;;;7.18;67.39;99896.78;5049000;28;20521;-66
2023/03/22 06:58:28;;;;;;;11.18;4.70;;;;;;;7.26;67.81;99895.94;5039416;28;20071;-66
2023/03/22 07:00:56;;;;;;;10.30;4.27;;;;;;;7.39;67.46;99888.97;5038994;28;20061;-65
2023/03/22 07:03:22;;;;;;;9.82;3.88;;;;;;;7.60;66.66;99883.78;5033695;28;20057;-67
2023/03/22 07:05:48;;;;;;;10.68;4.10;;;;;;;7.73;66.37;99891.69;5036700;28;20033;-65
2023/03/22 07:08:13;;;;;;;10.33;3.90;;;;;;;7.89;66.41;99895.19;5036361;28;20089;-67
2023/03/22 07:10:39;;;;;;;8.33;3.50;;;;;;;7.98;67.28;99896.97;5035853;28;20053;-66
2023/03/22 07:13:05;;;;;;;11.00;4.32;;;;;;;8.15;66.80;99894.34;5034892;28;20033;-66
2023/03/22 07:15:31;;;;;;;12.30;4.33;;;;;;;8.22;66.80;99890.81;5036456;28;20040;-66
2023/03/22 07:17:59;;;;;;;12.13;4.68;;;;;;;8.32;66.89;99884.72;5036550;28;20033;-65
2023/03/22 07:20:24;;;;;;;12.73;4.60;;;;;;;8.46;66.66;99891.69;5034774;28;20416;-65
2023/03/22 07:22:50;;;;;;;10.43;4.60;;;;;;;8.57;66.37;99884.72;5039645;28;20033;-66
2023/03/22 07:25:16;;;;;;;9.87;4.87;;;;;;;8.74;66.52;99889.03;5036676;28;20048;-65
2023/03/22 07:27:41;;;;;;;11.48;5.10;;;;;;;8.93;65.96;99882.00;5035831;28;20084;-66
2023/03/22 07:30:07;;;;;;;8.73;3.87;;;;;;;9.07;65.79;99883.66;5035559;28;20036;-66
2023/03/22 07:32:33;;;;;;;10.48;4.47;;;;;;;9.15;65.68;99892.38;5040312;28;20043;-66
2023/03/22 07:34:58;;;;;;;9.10;4.40;;;;;;;9.24;65.53;99897.63;5056281;28;20036;-66
2023/03/22 07:37:23;;;;;;;11.53;4.70;;;;;;;9.31;65.55;99882.69;5037643;28;20033;-65
2023/03/22 07:39:49;;;;;;;9.60;4.30;;;;;;;9.32;65.50;99887.06;5038953;28;20748;-66
2023/03/22 07:42:14;;;;;;;10.03;4.43;;;;;;;9.32;65.36;99880.03;5071713;28;20034;-66
2023/03/22 07:44:40;;;;;;;11.53;4.63;;;;;;;9.34;65.75;99882.69;5039124;28;20105;-66
2023/03/22 07:47:06;;;;;;;12.20;4.50;;;;;;;9.36;65.67;99883.53;5028301;28;20025;-66
2023/03/22 07:49:31;;;;;;;11.40;3.73;;;;;;;9.40;65.72;99887.00;5039005;28;20059;-66
2023/03/22 07:51:57;;;;;;;15.18;6.32;;;;;;;9.53;65.56;99882.59;5045247;28;20502;-66
2023/03/22 07:54:22;;;;;;;14.07;5.17;;;;;;;9.69;65.38;99892.09;5059415;28;20090;-66
2023/03/22 07:56:48;;;;;;;13.13;4.67;;;;;;;9.85;64.88;99886.75;5056332;28;20028;-66
2023/03/22 07:59:15;;;;;;;10.50;4.22;;;;;;;9.90;64.60;99882.31;5039184;28;20029;-66
2023/03/22 08:01:41;;;;;;;10.27;3.58;;;;;;;9.90;64.65;99882.31;5058114;28;20036;-66
2023/03/22 08:04:06;;;;;;;11.63;4.03;;;;;;;9.97;64.62;99889.28;5053585;28;20017;-66
2023/03/22 08:06:31;;;;;;;13.10;4.97;;;;;;;10.12;64.56;99897.94;5039131;28;20037;-66
2023/03/22 08:08:57;;;;;;;10.17;3.33;;;;;;;10.30;64.28;99883.75;5038539;28;20075;-66
2023/03/22 08:11:23;;;;;;;8.75;3.38;;;;;;;10.56;64.00;99886.16;5048463;28;20110;-66
2023/03/22 08:13:49;;;;;;;10.83;3.40;;;;;;;10.74;63.37;99881.59;5039186;28;20037;-65
2023/03/22 08:16:14;;;;;;;10.20;3.30;;;;;;;10.87;63.13;99877.94;5036061;28;20717;-65
2023/03/22 08:18:40;;;;;;;9.37;3.63;;;;;;;10.98;62.76;99885.69;5039685;28;20041;-66
2023/03/22 08:21:05;;;;;;;8.85;3.33;;;;;;;11.05;62.41;99890.00;5038825;28;20069;-66
2023/03/22 08:23:31;;;;;;;7.40;3.07;;;;;;;11.28;62.02;99872.16;5039072;28;20037;-66
2023/03/22 08:25:57;;;;;;;8.15;3.20;;;;;;;11.59;62.06;99877.00;5039102;28;20032;-66
2023/03/22 08:28:22;;;;;;;8.60;3.27;;;;;;;12.01;61.21;99869.38;5039009;28;20033;-66
2023/03/22 08:30:48;;;;;;;10.70;3.60;;;;;;;12.55;60.11;99861.41;5038543;28;20033;-64
2023/03/22 08:33:15;;;;;;;7.22;2.92;;;;;;;13.12;58.98;99848.81;5039010;28;20493;-64
2023/03/22 08:35:40;;;;;;;11.63;3.50;;;;;;;13.69;57.83;99844.94;5037553;28;20512;-64
2023/03/22 08:38:06;;;;;;;8.20;3.30;;;;;;;14.03;57.10;99844.09;5038865;28;20104;-64
2023/03/22 08:40:32;;;;;;;9.17;3.63;;;;;;;14.19;56.79;99841.06;5038535;28;20268;-63
2023/03/22 08:42:58;;;;;;;8.10;3.88;;;;;;;14.10;56.90;99841.28;5039067;28;20482;-65
2023/03/22 08:45:24;;;;;;;7.75;3.53;;;;;;;13.92;57.61;99851.44;5037229;28;20033;-64
2023/03/22 08:47:50;;;;;;;9.35;3.70;;;;;;;13.69;57.88;99849.34;5050974;28;20094;-65
2023/03/22 08:50:15;;;;;;;12.00;3.70;;;;;;;13.45;58.23;99854.28;5047406;28;20034;-66
2023/03/22 08:52:41;;;;;;;13.13;3.73;;;;;;;13.33;58.60;99844.81;5038429;28;20041;-66
2023/03/22 08:55:07;;;;;;;8.60;3.93;;;;;;;13.23;59.20;99851.22;5038476;28;20029;-65
2023/03/22 08:57:34;;;;;;;8.48;3.58;;;;;;;13.12;59.08;99848.81;5042765;28;20110;-65
2023/03/22 08:59:59;;;;;;;9.68;3.70;;;;;;;13.09;59.38;99847.09;5042725;28;20059;-65
2023/03/22 09:02:25;;;;;;;10.20;3.47;;;;;;;13.21;59.19;99835.38;5058392;28;20031;-66
2023/03/22 09:04:50;;;;;;;9.88;3.60;;;;;;;13.43;59.20;99838.47;5046469;28;20029;-66
2023/03/22 09:07:17;;;;;;;11.33;3.60;;;;;;;13.72;58.78;99833.38;5038521;28;20037;-66
2023/03/22 09:09:43;;;;;;;11.93;3.55;;;;;;;14.02;58.26;99838.84;5037929;28;20055;-66
2023/03/22 09:12:08;;;;;;;10.03;3.53;;;;;;;14.24;57.88;99831.22;5037058;28;20061;-66
2023/03/22 09:14:34;;;;;;;10.25;3.55;;;;;;;14.62;56.93;99826.69;5037760;28;20120;-66
2023/03/22 09:17:00;;;;;;;9.80;3.72;;;;;;;14.88;56.61;99826.84;5037425;28;20029;-66
2023/03/22 09:19:26;;;;;;;8.20;3.33;;;;;;;15.09;56.74;99827.16;5033202;28;20083;-66
2023/03/22 09:21:51;;;;;;;9.02;3.20;;;;;;;15.37;56.10;99829.84;5037567;28;20029;-66
2023/03/22 09:24:17;;;;;;;9.80;3.63;;;;;;;15.50;55.89;99828.53;5035167;28;20442;-65
2023/03/22 09:26:43;;;;;;;9.95;3.80;;;;;;;15.57;55.04;99831.00;5037919;28;20037;-65
2023/03/22 09:29:09;;;;;;;6.47;3.10;;;;;;;15.68;55.34;99833.31;5037594;28;20084;-66
2023/03/22 09:31:34;;;;;;;11.18;3.50;;;;;;;15.71;55.45;99836.72;5037764;28;20029;-65
2023/03/22 09:34:00;;;;;;;7.20;3.20;;;;;;;15.79;55.13;99834.69;5036379;28;20025;-66
2023/03/22 09:36:25;;;;;;;8.23;3.50;;;;;;;15.76;55.17;99839.22;5036679;28;20505;-66
2023/03/22 09:38:51;;;;;;;12.70;3.40;;;;;;;15.73;55.01;99837.53;5039633;28;20021;-65
2023/03/22 09:41:22;;;;;;;9.37;3.57;;;;;;;15.69;55.45;99835.91;5036598;28;20029;-65
2023/03/22 09:43:53;;;;;;;7.28;3.42;;;;;;;15.71;55.23;99828.75;5041656;28;20082;-66
2023/03/22 09:46:30;;;;;;;8.03;2.93;;;;;;;15.70;55.31;99829.69;5043796;28;20087;-65
2023/03/22 09:48:58;;;;;;;9.55;3.15;;;;;;;15.85;55.17;99816.81;5026250;28;20444;-65
2023/03/22 09:51:47;;;;;;;7.65;3.15;;;;;;;15.98;54.63;99812.00;5039382;28;20095;-67
2023/03/22 09:54:20;;;;;;;9.25;3.05;;;;;;;16.17;54.21;99804.25;5037445;28;20098;-68
2023/03/22 09:57:03;;;;;;;9.27;2.88;;;;;;;16.31;54.70;99815.28;5037360;28;20390;-67
2023/03/22 09:59:43;;;;;;;7.37;2.77;;;;;;;16.54;54.75;99812.72;5037130;28;20401;-67
2023/03/22 10:02:34;;;;;;;7.32;2.55;;;;;;;16.81;53.74;99805.53;5027764;28;20025;-68
2023/03/22 10:05:24;;;;;;;7.35;2.50;;;;;;;17.00;53.52;99810.16;5039008;28;20040;-68
2023/03/22 10:08:12;;;;;;;7.20;2.70;;;;;;;17.17;53.45;99807.72;5036733;28;20037;-67
2023/03/22 10:10:40;;;;;;;8.02;2.40;;;;;;;17.34;53.35;99799.06;5037018;28;20055;-67
2023/03/22 10:13:09;;;;;;;5.47;2.10;;;;;;;17.52;53.03;99798.44;5037287;28;20052;-67
2023/03/22 10:15:35;;;;;;;5.88;2.20;;;;;;;17.73;52.78;99794.88;5037166;28;20072;-67
2023/03/22 10:18:04;;;;;;;6.20;2.25;;;;;;;17.97;51.77;99794.78;5041058;28;20041;-67
2023/03/22 10:20:52;;;;;;;7.93;1.88;;;;;;;18.16;51.55;99796.69;5037031;28;20092;-67
2023/03/22 10:23:34;;;;;;;7.37;2.40;;;;;;;18.48;50.41;99797.09;5036805;28;20104;-64
2023/03/22 10:26:02;;;;;;;7.45;1.83;;;;;;;18.73;50.92;99793.31;5037213;28;20386;-64
2023/03/22 10:28:36;;;;;;;7.13;2.30;;;;;;;19.00;50.51;99790.34;5035583;28;20029;-65
2023/03/22 10:31:01;;;;;;;6.38;1.83;;;;;;;19.28;50.56;99792.53;5036732;28;20080;-65
2023/03/22 10:33:35;;;;;;;5.97;1.90;;;;;;;19.49;49.61;99787.97;5035727;28;20029;-65
2023/03/22 10:36:02;;;;;;;6.75;1.67;;;;;;;19.68;48.18;99784.41;5033536;28;20030;-65
2023/03/22 10:38:29;;;;;;;9.05;1.83;;;;;;;20.00;46.88;99775.72;5024852;28;20481;-64
2023/03/22 10:40:57;;;;;;;6.63;1.70;;;;;;;20.15;47.27;99777.59;5034410;28;20053;-65
2023/03/22 10:43:36;;;;;;;5.25;1.60;;;;;;;20.23;46.69;99782.56;5036848;28;20028;-65
2023/03/22 10:46:03;;;;;;;5.85;1.80;;;;;;;20.40;46.04;99775.47;5036844;28;20034;-64
2023/03/22 10:48:42;;;;;;;5.55;1.70;;;;;;;20.42;45.46;99774.41;5032873;28;20033;-65
2023/03/22 10:51:19;;;;;;;4.68;1.40;;;;;;;20.50;46.53;99776.69;5035841;28;20056;-65
2023/03/22 10:53:47;;;;;;;6.20;1.97;;;;;;;20.64;46.22;99774.16;5036352;28;20045;-65
2023/03/22 10:56:18;;;;;;;7.25;1.80;;;;;;;20.83;46.08;99769.63;5036336;28;20040;-65
2023/03/22 10:58:45;;;;;;;5.57;1.80;;;;;;;21.07;45.62;99770.94;5036267;28;20029;-65
2023/03/22 11:01:14;;;;;;;5.28;1.70;;;;;;;21.26;45.13;99769.91;5049941;28;20029;-65
2023/03/22 11:03:47;;;;;;;4.97;1.50;;;;;;;21.34;44.80;99773.00;5054662;28;20112;-65
2023/03/22 11:06:16;;;;;;;6.73;1.30;;;;;;;21.46;44.48;99766.09;5036440;28;20033;-65
2023/03/22 11:08:45;;;;;;;6.68;1.05;;;;;;;21.61;43.95;99766.16;5036272;28;20044;-65
2023/03/22 11:11:33;;;;;;;4.47;1.15;;;;;;;21.52;41.77;99760.38;5036393;28;20057;-65
2023/03/22 11:14:04;;;;;;;6.25;1.30;;;;;;;21.69;42.20;99760.38;5037873;28;20484;-65
2023/03/22 11:16:30;;;;;;;5.57;1.25;;;;;;;21.89;40.95;99756.53;5040507;28;20057;-65
2023/03/22 11:19:00;;;;;;;4.20;1.13;;;;;;;21.99;40.83;99752.31;5040605;28;20079;-65
2023/03/22 11:21:30;;;;;;;4.03;1.25;;;;;;;22.01;38.01;99750.41;5040442;28;20021;-65
2023/03/22 11:24:04;;;;;;;4.85;1.55;;;;;;;22.28;38.29;99746.16;5039017;28;20048;-65
2023/03/22 11:26:35;;;;;;;5.93;1.52;;;;;;;22.35;37.33;99753.72;5040299;28;20029;-65
2023/03/22 11:29:13;;;;;;;6.40;1.77;;;;;;;22.36;36.59;99738.50;5038576;28;20029;-65
2023/03/22 11:31:51;;;;;;;7.27;2.03;;;;;;;22.46;37.32;99745.06;5040207;28;20021;-65
2023/03/22 11:34:19;;;;;;;6.93;1.75;;;;;;;22.62;37.10;99744.97;5038720;28;20079;-65
2023/03/22 11:36:51;;;;;;;5.97;1.60;;;;;;;22.59;36.83;99739.78;5053768;28;20450;-65
2023/03/22 11:39:17;;;;;;;5.38;1.63;;;;;;;22.52;36.09;99743.78;5031574;28;20637;-65
2023/03/22 11:41:44;;;;;;;6.22;1.70;;;;;;;22.41;35.77;99740.91;5040160;28;20036;-65
2023/03/22 11:44:16;;;;;;;6.17;1.70;;;;;;;22.47;36.31;99732.50;5040037;28;20079;-66